sensor_id;sensor_type;location;lat;lon;timestamp;pressure;altitude;pressure_sealevel;temperature;humidity
20656;BME280;10487;53.320;8.672;2023-06-10T00:00:43;101581.22;;;13.43;37.31
20656;BME280;10487;53.320;8.672;2023-06-10T00:03:45;101578.88;;;13.39;37.37
20656;BME280;10487;53.320;8.672;2023-06-10T00:06:47;101589.84;;;13.36;37.34
20656;BME280;10487;53.320;8.672;2023-06-10T00:09:51;101588.44;;;13.30;37.65
20656;BME280;10487;53.320;8.672;2023-06-10T00:12:52;101583.41;;;13.26;37.88
20656;BME280;10487;53.320;8.672;2023-06-10T00:15:54;101587.47;;;13.19;37.67
20656;BME280;10487;53.320;8.672;2023-06-10T00:18:56;101581.59;;;13.13;37.99
20656;BME280;10487;53.320;8.672;2023-06-10T00:22:02;101592.56;;;13.10;38.05
20656;BME280;10487;53.320;8.672;2023-06-10T00:25:05;101587.41;;;13.07;37.88
20656;BME280;10487;53.320;8.672;2023-06-10T00:28:07;101589.34;;;13.05;38.11
20656;BME280;10487;53.320;8.672;2023-06-10T00:31:09;101578.09;;;13.00;38.33
20656;BME280;10487;53.320;8.672;2023-06-10T00:34:11;101578.41;;;12.96;38.48
20656;BME280;10487;53.320;8.672;2023-06-10T00:37:13;101584.31;;;12.88;38.43
20656;BME280;10487;53.320;8.672;2023-06-10T00:40:15;101577.56;;;12.83;38.59
20656;BME280;10487;53.320;8.672;2023-06-10T00:43:16;101591.38;;;12.77;38.56
20656;BME280;10487;53.320;8.672;2023-06-10T00:46:18;101585.47;;;12.72;38.85
20656;BME280;10487;53.320;8.672;2023-06-10T00:49:21;101577.75;;;12.67;38.97
20656;BME280;10487;53.320;8.672;2023-06-10T00:52:27;101588.69;;;12.64;38.74
20656;BME280;10487;53.320;8.672;2023-06-10T00:55:29;101587.19;;;12.60;39.02
20656;BME280;10487;53.320;8.672;2023-06-10T00:58:32;101590.19;;;12.56;39.26
20656;BME280;10487;53.320;8.672;2023-06-10T01:01:33;101591.31;;;12.52;38.97
20656;BME280;10487;53.320;8.672;2023-06-10T01:04:35;101585.53;;;12.45;39.07
20656;BME280;10487;53.320;8.672;2023-06-10T01:11:00;101593.31;;;12.35;39.61
20656;BME280;10487;53.320;8.672;2023-06-10T01:14:03;101585.63;;;12.31;39.69
20656;BME280;10487;53.320;8.672;2023-06-10T01:17:06;101594.78;;;12.27;39.49
20656;BME280;10487;53.320;8.672;2023-06-10T01:20:11;101590.41;;;12.26;39.80
20656;BME280;10487;53.320;8.672;2023-06-10T01:23:13;101594.16;;;12.23;39.90
20656;BME280;10487;53.320;8.672;2023-06-10T01:26:15;101586.34;;;12.20;39.73
20656;BME280;10487;53.320;8.672;2023-06-10T01:29:19;101586.66;;;12.16;39.92
20656;BME280;10487;53.320;8.672;2023-06-10T01:32:28;101594.75;;;12.14;39.82
20656;BME280;10487;53.320;8.672;2023-06-10T01:35:31;101604.81;;;12.11;39.90
20656;BME280;10487;53.320;8.672;2023-06-10T01:38:37;101599.66;;;12.08;40.21
20656;BME280;10487;53.320;8.672;2023-06-10T01:41:41;101599.88;;;12.05;40.17
20656;BME280;10487;53.320;8.672;2023-06-10T01:44:42;101601.91;;;12.01;40.13
20656;BME280;10487;53.320;8.672;2023-06-10T01:47:44;101606.59;;;11.98;40.48
20656;BME280;10487;53.320;8.672;2023-06-10T01:50:46;101609.69;;;11.92;40.43
20656;BME280;10487;53.320;8.672;2023-06-10T01:53:47;101614.47;;;11.87;40.58
20656;BME280;10487;53.320;8.672;2023-06-10T01:56:49;101603.09;;;11.83;40.68
20656;BME280;10487;53.320;8.672;2023-06-10T01:59:51;101609.63;;;11.79;40.43
20656;BME280;10487;53.320;8.672;2023-06-10T02:02:52;101607.25;;;11.74;40.64
20656;BME280;10487;53.320;8.672;2023-06-10T02:05:54;101611.81;;;11.72;40.67
20656;BME280;10487;53.320;8.672;2023-06-10T02:08:56;101616.53;;;11.69;41.03
20656;BME280;10487;53.320;8.672;2023-06-10T02:11:58;101613.19;;;11.65;40.83
20656;BME280;10487;53.320;8.672;2023-06-10T02:14:59;101616.16;;;11.61;40.88
20656;BME280;10487;53.320;8.672;2023-06-10T02:18:01;101620.06;;;11.55;41.31
20656;BME280;10487;53.320;8.672;2023-06-10T02:21:04;101621.19;;;11.51;41.27
20656;BME280;10487;53.320;8.672;2023-06-10T02:24:06;101627.69;;;11.47;41.13
20656;BME280;10487;53.320;8.672;2023-06-10T02:27:07;101635.06;;;11.44;41.41
20656;BME280;10487;53.320;8.672;2023-06-10T02:30:10;101630.88;;;11.40;41.47
20656;BME280;10487;53.320;8.672;2023-06-10T02:33:12;101635.63;;;11.35;41.39
20656;BME280;10487;53.320;8.672;2023-06-10T02:36:13;101639.44;;;11.31;41.63
20656;BME280;10487;53.320;8.672;2023-06-10T02:39:17;101642.41;;;11.26;41.48
20656;BME280;10487;53.320;8.672;2023-06-10T02:42:18;101646.22;;;11.22;41.69
20656;BME280;10487;53.320;8.672;2023-06-10T02:45:20;101646.50;;;11.17;41.77
20656;BME280;10487;53.320;8.672;2023-06-10T02:48:23;101653.84;;;11.14;41.96
20656;BME280;10487;53.320;8.672;2023-06-10T02:51:25;101647.00;;;11.10;41.76
20656;BME280;10487;53.320;8.672;2023-06-10T02:54:27;101640.09;;;11.06;41.76
20656;BME280;10487;53.320;8.672;2023-06-10T02:57:28;101643.94;;;11.02;42.10
20656;BME280;10487;53.320;8.672;2023-06-10T03:00:30;101644.13;;;10.99;42.11
20656;BME280;10487;53.320;8.672;2023-06-10T03:03:32;101643.53;;;10.94;42.18
20656;BME280;10487;53.320;8.672;2023-06-10T03:06:35;101645.50;;;10.90;42.10
20656;BME280;10487;53.320;8.672;2023-06-10T03:09:37;101648.47;;;10.86;42.17
20656;BME280;10487;53.320;8.672;2023-06-10T03:12:39;101640.63;;;10.83;42.13
20656;BME280;10487;53.320;8.672;2023-06-10T03:15:40;101646.19;;;10.80;42.30
20656;BME280;10487;53.320;8.672;2023-06-10T03:18:42;101644.56;;;10.77;42.30
20656;BME280;10487;53.320;8.672;2023-06-10T03:21:44;101648.28;;;10.75;42.50
20656;BME280;10487;53.320;8.672;2023-06-10T03:24:46;101645.78;;;10.72;42.43
20656;BME280;10487;53.320;8.672;2023-06-10T03:27:51;101649.41;;;10.71;42.55
20656;BME280;10487;53.320;8.672;2023-06-10T03:30:53;101645.97;;;10.69;42.70
20656;BME280;10487;53.320;8.672;2023-06-10T03:33:54;101642.53;;;10.67;42.73
20656;BME280;10487;53.320;8.672;2023-06-10T03:36:57;101646.13;;;10.66;42.87
20656;BME280;10487;53.320;8.672;2023-06-10T03:39:58;101650.66;;;10.65;42.90
20656;BME280;10487;53.320;8.672;2023-06-10T03:43:00;101646.13;;;10.66;42.83
20656;BME280;10487;53.320;8.672;2023-06-10T03:46:02;101649.69;;;10.66;42.75
20656;BME280;10487;53.320;8.672;2023-06-10T03:49:04;101645.19;;;10.67;42.74
20656;BME280;10487;53.320;8.672;2023-06-10T03:52:06;101647.75;;;10.68;42.91
20656;BME280;10487;53.320;8.672;2023-06-10T03:55:08;101650.25;;;10.71;43.02
20656;BME280;10487;53.320;8.672;2023-06-10T03:58:10;101660.88;;;10.73;43.03
20656;BME280;10487;53.320;8.672;2023-06-10T04:01:14;101648.34;;;10.73;43.05
20656;BME280;10487;53.320;8.672;2023-06-10T04:04:16;101657.97;;;10.76;43.10
20656;BME280;10487;53.320;8.672;2023-06-10T04:07:18;101647.25;;;10.77;43.30
20656;BME280;10487;53.320;8.672;2023-06-10T04:10:21;101643.41;;;10.81;43.16
20656;BME280;10487;53.320;8.672;2023-06-10T04:13:23;101652.13;;;10.85;43.26
20656;BME280;10487;53.320;8.672;2023-06-10T04:16:25;101653.75;;;10.87;43.49
20656;BME280;10487;53.320;8.672;2023-06-10T04:19:26;101654.50;;;10.89;43.38
20656;BME280;10487;53.320;8.672;2023-06-10T04:22:29;101661.28;;;10.95;43.51
20656;BME280;10487;53.320;8.672;2023-06-10T04:25:31;101657.56;;;10.97;43.50
20656;BME280;10487;53.320;8.672;2023-06-10T04:28:33;101661.88;;;11.00;43.34
20656;BME280;10487;53.320;8.672;2023-06-10T04:31:34;101659.97;;;11.02;43.63
20656;BME280;10487;53.320;8.672;2023-06-10T04:34:36;101659.78;;;11.05;43.44
20656;BME280;10487;53.320;8.672;2023-06-10T04:37:40;101664.91;;;11.08;43.56
20656;BME280;10487;53.320;8.672;2023-06-10T04:40:42;101660.81;;;11.16;43.46
20656;BME280;10487;53.320;8.672;2023-06-10T04:43:44;101667.97;;;11.30;43.77
20656;BME280;10487;53.320;8.672;2023-06-10T04:46:46;101668.47;;;11.37;43.51
20656;BME280;10487;53.320;8.672;2023-06-10T04:49:47;101676.94;;;11.43;43.70
20656;BME280;10487;53.320;8.672;2023-06-10T04:52:49;101669.31;;;11.51;43.54
20656;BME280;10487;53.320;8.672;2023-06-10T04:55:51;101673.44;;;11.57;43.66
20656;BME280;10487;53.320;8.672;2023-06-10T04:58:52;101669.50;;;11.62;43.96
20656;BME280;10487;53.320;8.672;2023-06-10T05:01:54;101659.88;;;11.74;43.98
20656;BME280;10487;53.320;8.672;2023-06-10T05:04:56;101662.03;;;11.81;43.87
20656;BME280;10487;53.320;8.672;2023-06-10T05:07:59;101664.59;;;11.83;43.70
20656;BME280;10487;53.320;8.672;2023-06-10T05:11:01;101666.34;;;11.84;43.89
20656;BME280;10487;53.320;8.672;2023-06-10T05:14:02;101660.88;;;11.86;44.35
20656;BME280;10487;53.320;8.672;2023-06-10T05:17:04;101654.47;;;11.88;43.85
20656;BME280;10487;53.320;8.672;2023-06-10T05:20:07;101653.41;;;11.91;44.16
20656;BME280;10487;53.320;8.672;2023-06-10T05:23:09;101649.56;;;11.95;44.43
20656;BME280;10487;53.320;8.672;2023-06-10T05:26:11;101664.69;;;11.96;44.40
20656;BME280;10487;53.320;8.672;2023-06-10T05:29:13;101659.31;;;11.96;44.35
20656;BME280;10487;53.320;8.672;2023-06-10T05:32:14;101653.13;;;11.95;44.42
20656;BME280;10487;53.320;8.672;2023-06-10T05:35:16;101653.78;;;11.99;44.41
20656;BME280;10487;53.320;8.672;2023-06-10T05:38:18;101655.28;;;12.03;44.37
20656;BME280;10487;53.320;8.672;2023-06-10T05:41:20;101650.41;;;12.09;44.58
20656;BME280;10487;53.320;8.672;2023-06-10T05:44:23;101653.63;;;12.14;44.40
20656;BME280;10487;53.320;8.672;2023-06-10T05:47:25;101657.25;;;12.13;44.74
20656;BME280;10487;53.320;8.672;2023-06-10T05:50:26;101650.84;;;12.16;44.62
20656;BME280;10487;53.320;8.672;2023-06-10T05:53:28;101643.59;;;12.18;44.61
20656;BME280;10487;53.320;8.672;2023-06-10T05:56:30;101644.25;;;12.21;44.81
20656;BME280;10487;53.320;8.672;2023-06-10T05:59:31;101654.53;;;12.27;44.90
20656;BME280;10487;53.320;8.672;2023-06-10T06:02:33;101655.00;;;12.34;44.71
20656;BME280;10487;53.320;8.672;2023-06-10T06:05:38;101648.59;;;12.36;44.97
20656;BME280;10487;53.320;8.672;2023-06-10T06:08:40;101658.31;;;12.37;44.73
20656;BME280;10487;53.320;8.672;2023-06-10T06:11:42;101656.38;;;12.39;44.90
20656;BME280;10487;53.320;8.672;2023-06-10T06:14:43;101664.09;;;12.44;45.01
20656;BME280;10487;53.320;8.672;2023-06-10T06:17:46;101664.66;;;12.49;44.93
20656;BME280;10487;53.320;8.672;2023-06-10T06:20:49;101675.94;;;12.54;44.84
20656;BME280;10487;53.320;8.672;2023-06-10T06:23:51;101667.16;;;12.52;45.02
20656;BME280;10487;53.320;8.672;2023-06-10T06:26:53;101666.09;;;12.55;44.97
20656;BME280;10487;53.320;8.672;2023-06-10T06:29:54;101670.19;;;12.60;45.14
20656;BME280;10487;53.320;8.672;2023-06-10T06:32:57;101674.34;;;12.64;44.76
20656;BME280;10487;53.320;8.672;2023-06-10T06:35:58;101676.19;;;12.64;45.20
20656;BME280;10487;53.320;8.672;2023-06-10T06:39:02;101682.63;;;12.61;45.31
20656;BME280;10487;53.320;8.672;2023-06-10T06:42:04;101677.25;;;12.61;44.97
20656;BME280;10487;53.320;8.672;2023-06-10T06:45:07;101680.56;;;12.65;44.89
20656;BME280;10487;53.320;8.672;2023-06-10T06:48:09;101673.94;;;12.70;44.92
20656;BME280;10487;53.320;8.672;2023-06-10T06:51:11;101671.81;;;12.75;44.87
20656;BME280;10487;53.320;8.672;2023-06-10T06:54:12;101678.34;;;12.84;44.80
20656;BME280;10487;53.320;8.672;2023-06-10T06:57:14;101680.63;;;12.90;44.74
20656;BME280;10487;53.320;8.672;2023-06-10T07:00:16;101672.19;;;12.96;45.09
20656;BME280;10487;53.320;8.672;2023-06-10T07:03:18;101675.47;;;12.99;44.89
20656;BME280;10487;53.320;8.672;2023-06-10T07:06:19;101672.41;;;13.05;45.09
20656;BME280;10487;53.320;8.672;2023-06-10T07:09:21;101668.31;;;13.13;45.18
20656;BME280;10487;53.320;8.672;2023-06-10T07:12:23;101669.59;;;13.20;44.99
20656;BME280;10487;53.320;8.672;2023-06-10T07:15:25;101679.56;;;13.30;44.89
20656;BME280;10487;53.320;8.672;2023-06-10T07:18:26;101679.66;;;13.41;44.75
20656;BME280;10487;53.320;8.672;2023-06-10T07:21:30;101674.44;;;13.52;44.82
20656;BME280;10487;53.320;8.672;2023-06-10T07:24:31;101670.13;;;13.62;44.83
20656;BME280;10487;53.320;8.672;2023-06-10T07:27:33;101672.78;;;13.75;44.73
20656;BME280;10487;53.320;8.672;2023-06-10T07:30:35;101671.88;;;13.87;44.74
20656;BME280;10487;53.320;8.672;2023-06-10T07:33:36;101673.88;;;13.96;44.91
20656;BME280;10487;53.320;8.672;2023-06-10T07:36:39;101672.38;;;14.05;44.69
20656;BME280;10487;53.320;8.672;2023-06-10T07:39:41;101667.28;;;14.13;44.91
20656;BME280;10487;53.320;8.672;2023-06-10T07:42:43;101665.53;;;14.24;44.87
20656;BME280;10487;53.320;8.672;2023-06-10T07:45:45;101662.88;;;14.35;44.98
20656;BME280;10487;53.320;8.672;2023-06-10T07:48:47;101670.28;;;14.45;44.75
20656;BME280;10487;53.320;8.672;2023-06-10T07:51:50;101666.16;;;14.52;44.78
20656;BME280;10487;53.320;8.672;2023-06-10T07:54:52;101666.44;;;14.60;44.65
20656;BME280;10487;53.320;8.672;2023-06-10T07:57:54;101664.00;;;14.68;44.54
20656;BME280;10487;53.320;8.672;2023-06-10T08:00:55;101665.16;;;14.76;44.91
20656;BME280;10487;53.320;8.672;2023-06-10T08:03:57;101667.00;;;14.87;44.67
20656;BME280;10487;53.320;8.672;2023-06-10T08:06:59;101663.38;;;14.99;44.67
20656;BME280;10487;53.320;8.672;2023-06-10T08:10:02;101658.13;;;15.09;44.78
20656;BME280;10487;53.320;8.672;2023-06-10T08:13:04;101665.34;;;15.19;44.70
20656;BME280;10487;53.320;8.672;2023-06-10T08:16:06;101677.88;;;15.31;44.64
20656;BME280;10487;53.320;8.672;2023-06-10T08:19:07;101667.34;;;15.39;44.66
20656;BME280;10487;53.320;8.672;2023-06-10T08:22:10;101660.25;;;15.49;44.65
20656;BME280;10487;53.320;8.672;2023-06-10T08:25:12;101657.69;;;15.59;44.65
20656;BME280;10487;53.320;8.672;2023-06-10T08:28:13;101663.28;;;15.67;44.58
20656;BME280;10487;53.320;8.672;2023-06-10T08:31:15;101663.28;;;15.78;44.51
20656;BME280;10487;53.320;8.672;2023-06-10T08:34:17;101664.50;;;15.96;44.58
20656;BME280;10487;53.320;8.672;2023-06-10T08:37:18;101650.38;;;16.15;44.63
20656;BME280;10487;53.320;8.672;2023-06-10T08:40:20;101652.66;;;16.31;44.62
20656;BME280;10487;53.320;8.672;2023-06-10T08:43:43;101644.13;;;16.46;44.59
20656;BME280;10487;53.320;8.672;2023-06-10T08:46:46;101643.13;;;16.58;44.63
20656;BME280;10487;53.320;8.672;2023-06-10T08:49:47;101647.72;;;16.67;44.54
20656;BME280;10487;53.320;8.672;2023-06-10T08:52:54;101646.34;;;16.73;44.74
20656;BME280;10487;53.320;8.672;2023-06-10T08:59:02;101644.69;;;16.81;44.50
20656;BME280;10487;53.320;8.672;2023-06-10T09:02:04;101644.91;;;16.89;44.22
20656;BME280;10487;53.320;8.672;2023-06-10T09:05:08;101649.50;;;16.99;44.41
20656;BME280;10487;53.320;8.672;2023-06-10T09:08:10;101639.91;;;17.06;44.09
20656;BME280;10487;53.320;8.672;2023-06-10T09:11:12;101637.28;;;17.15;44.13
20656;BME280;10487;53.320;8.672;2023-06-10T09:14:14;101643.94;;;17.21;44.37
20656;BME280;10487;53.320;8.672;2023-06-10T09:17:18;101639.00;;;17.26;44.23
20656;BME280;10487;53.320;8.672;2023-06-10T09:20:19;101638.34;;;17.33;43.83
20656;BME280;10487;53.320;8.672;2023-06-10T09:23:21;101636.34;;;17.35;43.90
20656;BME280;10487;53.320;8.672;2023-06-10T09:26:27;101638.66;;;17.40;44.17
20656;BME280;10487;53.320;8.672;2023-06-10T09:29:30;101628.78;;;17.50;43.86
20656;BME280;10487;53.320;8.672;2023-06-10T09:32:40;101641.44;;;17.59;43.95
20656;BME280;10487;53.320;8.672;2023-06-10T09:35:49;101637.94;;;17.68;44.08
20656;BME280;10487;53.320;8.672;2023-06-10T09:38:51;101634.44;;;17.77;43.72
20656;BME280;10487;53.320;8.672;2023-06-10T09:41:53;101638.97;;;17.86;43.59
20656;BME280;10487;53.320;8.672;2023-06-10T09:44:56;101635.44;;;17.95;43.61
20656;BME280;10487;53.320;8.672;2023-06-10T09:47:58;101636.47;;;18.04;43.64
20656;BME280;10487;53.320;8.672;2023-06-10T09:51:00;101636.31;;;18.15;43.64
20656;BME280;10487;53.320;8.672;2023-06-10T09:54:02;101645.16;;;18.27;43.46
20656;BME280;10487;53.320;8.672;2023-06-10T09:57:07;101641.47;;;18.37;43.75
20656;BME280;10487;53.320;8.672;2023-06-10T10:00:11;101636.38;;;18.53;43.73
20656;BME280;10487;53.320;8.672;2023-06-10T10:03:22;101639.31;;;18.69;43.55
20656;BME280;10487;53.320;8.672;2023-06-10T10:06:24;101629.94;;;18.83;43.39
20656;BME280;10487;53.320;8.672;2023-06-10T10:09:26;101639.84;;;19.02;43.15
20656;BME280;10487;53.320;8.672;2023-06-10T10:12:29;101642.22;;;19.24;42.94
20656;BME280;10487;53.320;8.672;2023-06-10T10:15:32;101643.16;;;19.42;43.05
20656;BME280;10487;53.320;8.672;2023-06-10T10:18:39;101635.78;;;19.62;43.15
20656;BME280;10487;53.320;8.672;2023-06-10T10:21:46;101628.59;;;19.80;42.87
20656;BME280;10487;53.320;8.672;2023-06-10T10:24:55;101627.88;;;20.05;42.85
20656;BME280;10487;53.320;8.672;2023-06-10T10:28:04;101629.44;;;20.25;42.82
20656;BME280;10487;53.320;8.672;2023-06-10T10:31:09;101630.59;;;20.40;42.68
20656;BME280;10487;53.320;8.672;2023-06-10T10:34:14;101634.09;;;20.50;42.44
20656;BME280;10487;53.320;8.672;2023-06-10T10:37:17;101631.13;;;20.61;42.38
20656;BME280;10487;53.320;8.672;2023-06-10T10:40:20;101627.84;;;20.76;42.40
20656;BME280;10487;53.320;8.672;2023-06-10T10:43:22;101630.38;;;20.95;42.32
20656;BME280;10487;53.320;8.672;2023-06-10T10:46:24;101624.84;;;21.04;42.47
20656;BME280;10487;53.320;8.672;2023-06-10T10:49:26;101632.22;;;21.12;42.17
20656;BME280;10487;53.320;8.672;2023-06-10T10:52:59;101620.56;;;21.19;42.01
20656;BME280;10487;53.320;8.672;2023-06-10T10:56:12;101618.72;;;21.28;41.89
20656;BME280;10487;53.320;8.672;2023-06-10T10:59:15;101616.59;;;21.40;41.62
20656;BME280;10487;53.320;8.672;2023-06-10T11:05:46;101621.53;;;21.52;41.39
20656;BME280;10487;53.320;8.672;2023-06-10T11:08:51;101619.56;;;21.62;41.43
20656;BME280;10487;53.320;8.672;2023-06-10T11:11:56;101624.16;;;21.70;41.24
20656;BME280;10487;53.320;8.672;2023-06-10T11:14:58;101618.13;;;21.76;41.25
20656;BME280;10487;53.320;8.672;2023-06-10T11:21:16;101603.75;;;21.91;40.97
20656;BME280;10487;53.320;8.672;2023-06-10T11:24:18;101609.88;;;22.02;40.93
20656;BME280;10487;53.320;8.672;2023-06-10T11:27:22;101614.31;;;22.11;40.64
20656;BME280;10487;53.320;8.672;2023-06-10T11:30:34;101616.84;;;22.20;40.59
20656;BME280;10487;53.320;8.672;2023-06-10T11:33:38;101615.16;;;22.27;40.58
20656;BME280;10487;53.320;8.672;2023-06-10T11:36:42;101607.19;;;22.34;40.30
20656;BME280;10487;53.320;8.672;2023-06-10T11:39:46;101596.19;;;22.43;40.29
20656;BME280;10487;53.320;8.672;2023-06-10T11:42:48;101600.06;;;22.57;40.38
20656;BME280;10487;53.320;8.672;2023-06-10T11:45:54;101607.22;;;22.66;40.31
20656;BME280;10487;53.320;8.672;2023-06-10T11:48:58;101616.56;;;22.72;39.88
20656;BME280;10487;53.320;8.672;2023-06-10T11:52:04;101600.91;;;22.82;39.83
20656;BME280;10487;53.320;8.672;2023-06-10T11:55:06;101601.09;;;22.88;39.88
20656;BME280;10487;53.320;8.672;2023-06-10T11:58:15;101595.28;;;22.91;39.26
20656;BME280;10487;53.320;8.672;2023-06-10T12:01:22;101594.59;;;22.97;39.46
20656;BME280;10487;53.320;8.672;2023-06-10T12:04:29;101590.66;;;23.00;39.17
20656;BME280;10487;53.320;8.672;2023-06-10T12:07:31;101585.94;;;23.02;39.38
20656;BME280;10487;53.320;8.672;2023-06-10T12:10:39;101585.41;;;23.06;38.76
20656;BME280;10487;53.320;8.672;2023-06-10T12:13:46;101590.81;;;23.14;38.72
20656;BME280;10487;53.320;8.672;2023-06-10T12:16:50;101570.22;;;23.20;39.07
20656;BME280;10487;53.320;8.672;2023-06-10T12:19:51;101576.47;;;23.29;38.22
20656;BME280;10487;53.320;8.672;2023-06-10T12:22:53;101578.69;;;23.33;38.70
20656;BME280;10487;53.320;8.672;2023-06-10T12:25:55;101573.69;;;23.45;38.65
20656;BME280;10487;53.320;8.672;2023-06-10T12:28:57;101572.81;;;23.52;38.19
20656;BME280;10487;53.320;8.672;2023-06-10T12:32:00;101568.53;;;23.58;37.73
20656;BME280;10487;53.320;8.672;2023-06-10T12:35:06;101568.50;;;23.66;37.60
20656;BME280;10487;53.320;8.672;2023-06-10T12:38:08;101562.00;;;23.75;37.59
20656;BME280;10487;53.320;8.672;2023-06-10T12:41:12;101556.31;;;23.84;37.29
20656;BME280;10487;53.320;8.672;2023-06-10T12:44:15;101552.69;;;23.92;37.76
20656;BME280;10487;53.320;8.672;2023-06-10T12:47:17;101543.97;;;23.97;37.76
20656;BME280;10487;53.320;8.672;2023-06-10T12:50:18;101553.75;;;24.06;37.50
20656;BME280;10487;53.320;8.672;2023-06-10T12:53:20;101548.91;;;24.16;37.56
20656;BME280;10487;53.320;8.672;2023-06-10T12:56:22;101550.97;;;24.22;36.73
20656;BME280;10487;53.320;8.672;2023-06-10T12:59:25;101544.84;;;24.20;37.11
20656;BME280;10487;53.320;8.672;2023-06-10T13:02:27;101551.97;;;24.21;36.79
20656;BME280;10487;53.320;8.672;2023-06-10T13:05:28;101543.63;;;24.22;36.90
20656;BME280;10487;53.320;8.672;2023-06-10T13:08:31;101548.69;;;24.25;36.99
20656;BME280;10487;53.320;8.672;2023-06-10T13:11:32;101546.75;;;24.34;36.89
20656;BME280;10487;53.320;8.672;2023-06-10T13:14:34;101544.13;;;24.40;36.69
20656;BME280;10487;53.320;8.672;2023-06-10T13:17:36;101540.69;;;24.46;36.16
20656;BME280;10487;53.320;8.672;2023-06-10T13:20:38;101534.66;;;24.51;35.95
20656;BME280;10487;53.320;8.672;2023-06-10T13:23:40;101535.81;;;24.57;36.48
20656;BME280;10487;53.320;8.672;2023-06-10T13:26:42;101536.41;;;24.67;35.91
20656;BME280;10487;53.320;8.672;2023-06-10T13:29:43;101534.41;;;24.75;36.10
20656;BME280;10487;53.320;8.672;2023-06-10T13:32:45;101523.16;;;24.78;36.03
20656;BME280;10487;53.320;8.672;2023-06-10T13:35:46;101530.97;;;24.81;35.71
20656;BME280;10487;53.320;8.672;2023-06-10T13:38:48;101514.69;;;24.88;35.63
20656;BME280;10487;53.320;8.672;2023-06-10T13:41:50;101506.78;;;24.93;35.95
20656;BME280;10487;53.320;8.672;2023-06-10T13:44:53;101500.59;;;24.99;35.59
20656;BME280;10487;53.320;8.672;2023-06-10T13:47:55;101507.34;;;25.03;35.12
20656;BME280;10487;53.320;8.672;2023-06-10T13:50:56;101507.34;;;25.03;35.15
20656;BME280;10487;53.320;8.672;2023-06-10T13:53:59;101500.47;;;25.07;35.35
20656;BME280;10487;53.320;8.672;2023-06-10T13:57:00;101494.44;;;25.11;35.20
20656;BME280;10487;53.320;8.672;2023-06-10T14:00:02;101494.91;;;25.15;35.12
20656;BME280;10487;53.320;8.672;2023-06-10T14:03:04;101503.84;;;25.24;35.50
20656;BME280;10487;53.320;8.672;2023-06-10T14:06:06;101496.09;;;25.27;35.05
20656;BME280;10487;53.320;8.672;2023-06-10T14:09:08;101493.19;;;25.29;34.78
20656;BME280;10487;53.320;8.672;2023-06-10T14:12:10;101496.38;;;25.32;34.87
20656;BME280;10487;53.320;8.672;2023-06-10T14:15:12;101492.91;;;25.38;34.87
20656;BME280;10487;53.320;8.672;2023-06-10T14:18:16;101491.69;;;25.41;34.50
20656;BME280;10487;53.320;8.672;2023-06-10T14:21:18;101481.47;;;25.49;34.55
20656;BME280;10487;53.320;8.672;2023-06-10T14:24:19;101488.06;;;25.55;34.78
20656;BME280;10487;53.320;8.672;2023-06-10T14:27:21;101490.63;;;25.56;34.36
20656;BME280;10487;53.320;8.672;2023-06-10T14:30:23;101479.97;;;25.61;34.62
20656;BME280;10487;53.320;8.672;2023-06-10T14:33:24;101481.31;;;25.72;34.29
20656;BME280;10487;53.320;8.672;2023-06-10T14:36:26;101492.75;;;25.82;34.41
20656;BME280;10487;53.320;8.672;2023-06-10T14:39:28;101482.69;;;25.83;34.73
20656;BME280;10487;53.320;8.672;2023-06-10T14:42:29;101477.84;;;25.85;34.29
20656;BME280;10487;53.320;8.672;2023-06-10T14:45:31;101475.78;;;25.87;34.41
20656;BME280;10487;53.320;8.672;2023-06-10T14:48:36;101474.75;;;25.88;34.49
20656;BME280;10487;53.320;8.672;2023-06-10T14:51:38;101474.19;;;25.92;34.44
20656;BME280;10487;53.320;8.672;2023-06-10T14:54:40;101472.34;;;25.99;34.31
20656;BME280;10487;53.320;8.672;2023-06-10T14:57:41;101478.66;;;26.00;34.24
20656;BME280;10487;53.320;8.672;2023-06-10T15:00:43;101476.56;;;26.02;34.39
20656;BME280;10487;53.320;8.672;2023-06-10T15:03:44;101471.09;;;26.02;34.28
20656;BME280;10487;53.320;8.672;2023-06-10T15:06:46;101475.72;;;26.01;34.39
20656;BME280;10487;53.320;8.672;2023-06-10T15:09:50;101476.16;;;25.98;34.20
20656;BME280;10487;53.320;8.672;2023-06-10T15:12:51;101470.47;;;26.00;34.20
20656;BME280;10487;53.320;8.672;2023-06-10T15:15:57;101473.84;;;26.02;34.15
20656;BME280;10487;53.320;8.672;2023-06-10T15:19:03;101467.72;;;26.00;34.17
20656;BME280;10487;53.320;8.672;2023-06-10T15:22:08;101474.09;;;26.07;34.21
20656;BME280;10487;53.320;8.672;2023-06-10T15:25:09;101465.72;;;26.08;34.25
20656;BME280;10487;53.320;8.672;2023-06-10T15:28:14;101468.44;;;26.08;34.05
20656;BME280;10487;53.320;8.672;2023-06-10T15:31:15;101458.34;;;26.09;34.01
20656;BME280;10487;53.320;8.672;2023-06-10T15:34:17;101456.44;;;26.09;33.94
20656;BME280;10487;53.320;8.672;2023-06-10T15:37:19;101464.22;;;26.06;33.92
20656;BME280;10487;53.320;8.672;2023-06-10T15:40:22;101462.91;;;26.02;34.07
20656;BME280;10487;53.320;8.672;2023-06-10T15:43:24;101458.03;;;25.97;34.06
20656;BME280;10487;53.320;8.672;2023-06-10T15:46:28;101454.44;;;25.97;33.91
20656;BME280;10487;53.320;8.672;2023-06-10T15:49:30;101453.63;;;25.96;33.88
20656;BME280;10487;53.320;8.672;2023-06-10T15:52:32;101449.19;;;25.95;33.96
20656;BME280;10487;53.320;8.672;2023-06-10T15:55:33;101443.94;;;25.94;33.96
20656;BME280;10487;53.320;8.672;2023-06-10T15:58:35;101451.28;;;25.93;33.82
20656;BME280;10487;53.320;8.672;2023-06-10T16:01:37;101445.16;;;25.91;33.93
20656;BME280;10487;53.320;8.672;2023-06-10T16:04:39;101442.63;;;25.90;33.83
20656;BME280;10487;53.320;8.672;2023-06-10T16:07:40;101443.72;;;25.95;33.93